Time;durP1;ratioP1;P1;durP2;ratioP2;P2;SDS_P1;SDS_P2;PMS_P1;PMS_P2;Temp;Humidity;BMP_temperature;BMP_pressure;BME280_temperature;BME280_humidity;BME280_pressure;Samples;Min_cycle;Max_cycle;Signal;HPM_P1;HPM_P2
2021/12/21 00:03:29;;;;;;;19.35;12.80;;;;;;;;;;21090011;28;19923;-53
2021/12/21 00:33:44;;;;;;;20.42;15.25;;;;;;;;;;21089264;28;20048;-52
2021/12/21 00:43:47;;;;;;;18.27;14.52;;;;;;;;;;21087014;28;20478;-52
2021/12/21 00:53:49;;;;;;;26.98;16.17;;;;;;;;;;21085880;28;20048;-53
2021/12/21 01:03:54;;;;;;;20.20;15.43;;;;;;;;;;21085644;28;20043;-53
2021/12/21 01:14:09;;;;;;;24.80;16.77;;;;;;;;;;21084389;28;20138;-54
2021/12/21 01:35:22;;;;;;;23.27;16.15;;;;;;;;;;21083137;28;20479;-51
2021/12/21 01:55:11;;;;;;;21.60;15.48;;;;;;;;;;21080295;28;20569;-52
2021/12/21 02:05:14;;;;;;;25.08;17.02;;;;;;;;;;21080451;28;20478;-52
2021/12/21 02:15:17;;;;;;;23.88;16.55;;;;;;;;;;21079270;28;20058;-54
2021/12/21 02:35:31;;;;;;;23.55;17.63;;;;;;;;;;21078926;28;20079;-52
2021/12/21 02:45:33;;;;;;;23.17;15.85;;;;;;;;;;21076950;28;20101;-51
2021/12/21 02:55:37;;;;;;;24.17;18.08;;;;;;;;;;21077571;28;20052;-56
2021/12/21 03:05:50;;;;;;;24.80;18.00;;;;;;;;;;21077409;28;20044;-52
2021/12/21 03:15:51;;;;;;;26.38;17.73;;;;;;;;;;21093593;28;20084;-51
2021/12/21 03:25:53;;;;;;;24.10;16.60;;;;;;;;;;21093142;28;20133;-52
2021/12/21 03:35:56;;;;;;;21.48;15.18;;;;;;;;;;21092336;28;20108;-51
2021/12/21 03:46:13;;;;;;;22.00;16.10;;;;;;;;;;21091045;28;20048;-52
2021/12/21 04:06:23;;;;;;;25.10;16.77;;;;;;;;;;21089672;28;20048;-51
2021/12/21 04:16:27;;;;;;;25.52;17.17;;;;;;;;;;21089690;28;20087;-53
2021/12/21 04:26:31;;;;;;;21.92;16.45;;;;;;;;;;21087506;28;20052;-52
2021/12/21 04:36:35;;;;;;;23.67;17.37;;;;;;;;;;21087661;28;20048;-52
2021/12/21 04:46:38;;;;;;;26.77;16.88;;;;;;;;;;21087164;28;20108;-52
2021/12/21 04:56:41;;;;;;;25.08;17.58;;;;;;;;;;21086528;28;20047;-52
2021/12/21 05:06:43;;;;;;;25.67;18.70;;;;;;;;;;21084791;28;20059;-51
2021/12/21 05:16:47;;;;;;;18.13;13.63;;;;;;;;;;21084542;28;20052;-51
2021/12/21 05:26:50;;;;;;;21.45;14.27;;;;;;;;;;21083737;28;20460;-52
2021/12/21 05:36:53;;;;;;;18.88;14.27;;;;;;;;;;21081364;28;20056;-53
2021/12/21 05:46:56;;;;;;;20.70;14.35;;;;;;;;;;21082212;28;20131;-52
2021/12/21 05:56:59;;;;;;;20.70;14.05;;;;;;;;;;21081087;28;20063;-52
2021/12/21 06:07:02;;;;;;;62.85;18.50;;;;;;;;;;21080524;28;20052;-52
2021/12/21 06:27:10;;;;;;;21.97;13.80;;;;;;;;;;21079494;28;20051;-53
2021/12/21 06:37:13;;;;;;;20.70;14.32;;;;;;;;;;21078670;28;20052;-53
2021/12/21 06:57:39;;;;;;;22.13;15.43;;;;;;;;;;21077527;28;20052;-54
2021/12/21 07:07:42;;;;;;;21.23;15.43;;;;;;;;;;21076680;28;20387;-53
2021/12/21 07:18:06;;;;;;;18.25;14.32;;;;;;;;;;21075317;28;20044;-55
2021/12/21 07:28:08;;;;;;;20.30;14.00;;;;;;;;;;21076423;28;20087;-55
2021/12/21 07:38:32;;;;;;;21.48;15.32;;;;;;;;;;21075806;28;20052;-54
2021/12/21 07:48:54;;;;;;;20.33;14.52;;;;;;;;;;21076232;28;20117;-54
2021/12/21 07:59:15;;;;;;;26.73;16.38;;;;;;;;;;21084838;28;20059;-54
2021/12/21 08:09:17;;;;;;;26.33;17.23;;;;;;;;;;21089514;28;20098;-52
2021/12/21 08:19:19;;;;;;;26.33;17.33;;;;;;;;;;21088268;28;20118;-54
2021/12/21 08:29:23;;;;;;;26.08;16.17;;;;;;;;;;21087592;28;20047;-55
2021/12/21 08:39:36;;;;;;;18.17;13.93;;;;;;;;;;21087283;28;20430;-53
2021/12/21 08:49:41;;;;;;;21.63;14.73;;;;;;;;;;21086342;28;20063;-54
2021/12/21 08:59:49;;;;;;;29.98;16.40;;;;;;;;;;21085708;28;20504;-55
2021/12/21 09:09:53;;;;;;;22.45;16.48;;;;;;;;;;21084295;28;20075;-54
2021/12/21 09:20:00;;;;;;;25.95;15.60;;;;;;;;;;21083480;28;20048;-54
2021/12/21 09:30:05;;;;;;;25.92;17.40;;;;;;;;;;21082975;28;20052;-55
2021/12/21 09:40:11;;;;;;;21.40;16.05;;;;;;;;;;21083262;28;20079;-55
2021/12/21 09:50:18;;;;;;;29.33;18.02;;;;;;;;;;21081227;28;20398;-53
2021/12/21 10:00:32;;;;;;;23.02;16.85;;;;;;;;;;21079937;28;20052;-53
2021/12/21 10:10:40;;;;;;;24.98;16.30;;;;;;;;;;21080418;28;20489;-52
2021/12/21 10:20:46;;;;;;;23.83;16.50;;;;;;;;;;21078184;28;20071;-54
2021/12/21 10:30:53;;;;;;;24.83;17.00;;;;;;;;;;21079201;28;20119;-56
2021/12/21 10:40:58;;;;;;;27.75;16.90;;;;;;;;;;21071019;28;20055;-53
2021/12/21 10:51:02;;;;;;;26.00;16.13;;;;;;;;;;21075692;28;20040;-57
2021/12/21 11:01:09;;;;;;;28.57;17.20;;;;;;;;;;21075118;28;20413;-54
2021/12/21 11:11:11;;;;;;;;;;;;;;;;;;21077231;28;20047;-57
2021/12/21 11:21:13;;;;;;;28.75;16.77;;;;;;;;;;21074949;28;19920;-52
2021/12/21 11:31:18;;;;;;;28.98;15.55;;;;;;;;;;21082733;28;20048;-58
2021/12/21 11:41:20;;;;;;;27.08;16.30;;;;;;;;;;21092735;28;20410;-54
2021/12/21 11:51:24;;;;;;;35.22;19.08;;;;;;;;;;21090631;28;20048;-57
2021/12/21 12:01:28;;;;;;;32.50;18.88;;;;;;;;;;21090600;28;20044;-59
2021/12/21 12:11:39;;;;;;;33.70;20.50;;;;;;;;;;21087428;28;20048;-57
2021/12/21 12:21:53;;;;;;;29.23;18.80;;;;;;;;;;21087790;28;20083;-56
2021/12/21 12:32:02;;;;;;;34.58;20.10;;;;;;;;;;21087466;28;20040;-54
2021/12/21 12:42:10;;;;;;;39.80;22.15;;;;;;;;;;21086992;28;20051;-64
2021/12/21 12:52:16;;;;;;;27.55;17.30;;;;;;;;;;21086021;28;20071;-57
2021/12/21 13:02:19;;;;;;;;;;;;;;;;;;21085970;28;20056;-61
2021/12/21 13:12:22;;;;;;;31.17;17.65;;;;;;;;;;21086371;28;20289;-62
2021/12/21 13:22:26;;;;;;;34.10;17.90;;;;;;;;;;21085449;28;20094;-66
2021/12/21 13:32:32;;;;;;;38.17;18.35;;;;;;;;;;21083239;28;20051;-64
2021/12/21 13:42:35;;;;;;;32.00;18.83;;;;;;;;;;21081941;28;20044;-66
2021/12/21 13:52:40;;;;;;;36.80;19.40;;;;;;;;;;21079197;28;20489;-64
2021/12/21 14:02:51;;;;;;;38.03;20.75;;;;;;;;;;21081583;28;20075;-64
2021/12/21 14:12:58;;;;;;;34.15;22.25;;;;;;;;;;21080074;28;20185;-64
2021/12/21 14:23:00;;;;;;;33.67;20.83;;;;;;;;;;21079151;28;20121;-64
2021/12/21 14:43:45;;;;;;;35.92;20.00;;;;;;;;;;20738752;28;20480;-63
2021/12/21 14:53:58;;;;;;;35.35;21.38;;;;;;;;;;20737810;28;20049;-63
2021/12/21 15:04:10;;;;;;;39.10;23.02;;;;;;;;;;20741626;28;20060;-64
2021/12/21 15:14:12;;;;;;;36.78;22.52;;;;;;;;;;20864582;28;20066;-64
2021/12/21 15:24:16;;;;;;;34.58;23.10;;;;;;;;;;21092848;28;20044;-64
2021/12/21 15:34:19;;;;;;;37.85;22.13;;;;;;;;;;21092691;28;20051;-62
2021/12/21 15:44:28;;;;;;;39.47;21.80;;;;;;;;;;21092032;28;20044;-63
2021/12/21 15:54:32;;;;;;;32.17;20.65;;;;;;;;;;21089050;28;20056;-68
2021/12/21 16:04:34;;;;;;;41.07;23.17;;;;;;;;;;21087546;28;20060;-65
2021/12/21 16:14:38;;;;;;;42.78;22.88;;;;;;;;;;21091005;28;20052;-62
2021/12/21 16:24:41;;;;;;;35.65;23.35;;;;;;;;;;21089047;28;20059;-66
2021/12/21 16:34:45;;;;;;;31.70;17.20;;;;;;;;;;21087905;28;20078;-60
2021/12/21 16:44:48;;;;;;;42.30;26.05;;;;;;;;;;21089589;28;20490;-64
2021/12/21 16:55:00;;;;;;;44.65;26.25;;;;;;;;;;21083980;28;20052;-59
2021/12/21 17:05:03;;;;;;;44.95;25.65;;;;;;;;;;21083480;28;20046;-65
2021/12/21 17:15:08;;;;;;;54.55;27.23;;;;;;;;;;21081158;28;20509;-57
2021/12/21 17:25:11;;;;;;;61.20;33.20;;;;;;;;;;21083377;28;20044;-57
2021/12/21 17:35:15;;;;;;;50.58;30.65;;;;;;;;;;21083008;28;20055;-57
2021/12/21 17:45:18;;;;;;;47.17;28.27;;;;;;;;;;21081051;28;20051;-58
2021/12/21 17:55:20;;;;;;;47.85;27.67;;;;;;;;;;21079441;28;20055;-57
2021/12/21 18:05:23;;;;;;;40.53;24.88;;;;;;;;;;21060454;28;20044;-57
2021/12/21 18:15:26;;;;;;;44.97;24.45;;;;;;;;;;21078179;28;20508;-57
2021/12/21 18:25:28;;;;;;;79.18;40.50;;;;;;;;;;21077970;28;20050;-57
2021/12/21 18:35:31;;;;;;;43.05;26.00;;;;;;;;;;21078001;28;20055;-56
2021/12/21 18:45:34;;;;;;;44.47;26.08;;;;;;;;;;21076758;28;20093;-56
2021/12/21 18:55:37;;;;;;;45.90;29.17;;;;;;;;;;21076012;28;20109;-55
2021/12/21 19:05:40;;;;;;;44.05;28.55;;;;;;;;;;21075685;28;20168;-59
2021/12/21 19:15:43;;;;;;;36.58;22.80;;;;;;;;;;21074439;28;20390;-58
2021/12/21 19:25:45;;;;;;;35.88;21.95;;;;;;;;;;21075671;28;20051;-57
2021/12/21 19:35:48;;;;;;;34.47;21.08;;;;;;;;;;21076447;28;20124;-57
2021/12/21 19:45:51;;;;;;;40.22;22.77;;;;;;;;;;21074803;28;20105;-58
2021/12/21 19:55:54;;;;;;;45.90;25.15;;;;;;;;;;21086323;28;20387;-58
2021/12/21 20:05:56;;;;;;;45.65;24.70;;;;;;;;;;21089273;28;20133;-57
2021/12/21 20:15:58;;;;;;;49.28;30.65;;;;;;;;;;21088395;28;20485;-57
2021/12/21 20:26:00;;;;;;;38.95;24.55;;;;;;;;;;21087392;28;20048;-58
2021/12/21 20:36:02;;;;;;;41.85;24.98;;;;;;;;;;21087376;28;20048;-58
2021/12/21 20:46:04;;;;;;;42.35;23.13;;;;;;;;;;21086569;28;20051;-57
2021/12/21 20:56:06;;;;;;;36.70;22.35;;;;;;;;;;21084937;28;20105;-56
2021/12/21 21:06:08;;;;;;;30.23;20.00;;;;;;;;;;21084048;28;20055;-58
2021/12/21 21:16:10;;;;;;;34.47;20.15;;;;;;;;;;21083659;28;20044;-57
2021/12/21 21:26:13;;;;;;;32.25;19.50;;;;;;;;;;21082859;28;20051;-59
2021/12/21 21:36:15;;;;;;;44.53;20.48;;;;;;;;;;21082366;28;20051;-58
2021/12/21 21:46:17;;;;;;;37.80;21.08;;;;;;;;;;21082685;28;20044;-57
2021/12/21 21:56:21;;;;;;;38.85;21.95;;;;;;;;;;21081997;28;20174;-59
2021/12/21 22:06:23;;;;;;;36.72;21.05;;;;;;;;;;21081390;28;20482;-59
2021/12/21 22:16:26;;;;;;;37.65;19.88;;;;;;;;;;21079624;28;20081;-59
2021/12/21 22:26:28;;;;;;;31.98;19.88;;;;;;;;;;21079638;28;20135;-56
2021/12/21 22:36:33;;;;;;;28.30;17.73;;;;;;;;;;21079399;28;20120;-58
2021/12/21 22:46:35;;;;;;;35.08;19.60;;;;;;;;;;21079357;28;20105;-62
2021/12/21 22:56:37;;;;;;;30.15;18.63;;;;;;;;;;21077743;28;20060;-58
2021/12/21 23:06:39;;;;;;;30.65;18.15;;;;;;;;;;21078103;28;20093;-59
2021/12/21 23:16:42;;;;;;;29.88;17.83;;;;;;;;;;21077414;28;20048;-56
2021/12/21 23:26:47;;;;;;;31.35;18.77;;;;;;;;;;21085498;28;20454;-57
2021/12/21 23:36:51;;;;;;;31.80;17.52;;;;;;;;;;21093225;28;20399;-57
2021/12/21 23:46:53;;;;;;;31.95;18.20;;;;;;;;;;21093404;28;20048;-58
2021/12/21 23:56:55;;;;;;;32.95;18.00;;;;;;;;;;21091436;28;20052;-58
